Weather at Montreal / Marina Venise Seaplane Base

Public forecast

Using degrees Celsius for public forecast. Weather courtesy of forecast.io.

Closest aviation weather report (METAR) to Montreal / Marina Venise Seaplane Base

Closest report is Montreal / Pierre Elliott Trudeau International Airport, 9.9 nm (18.3 km) S. Retrieved 2021/01/19 10:00 UTC (35 minutes ago):

CYUL 191000Z 00000KT 15SM BKN130 M13/M15 A2997 RMK AC7 SLP154

Closest aviation forecast (TAF) to Montreal / Marina Venise Seaplane Base

Closest forecast is Montreal / Pierre Elliott Trudeau International Airport, 9.9 nm (18.3 km) S. Retrieved 2021/01/19 09:42 UTC (53 minutes ago):

TAF CYUL 190838Z 1909/2006 VRB03KT P6SM SCT050 BKN130 BECMG 1909/1911 25007KT FM191900 15005KT P6SM BKN050 OVC120 FM192100 14008KT 5SM -SN BKN025 OVC050 FM192300 11005KT 2SM -SN OVC012 FM200300 14006KT 11/2SM -SN OVC010 FM200500 34007KT P6SM -SN SCT008 BKN020 OVC080 RMK NXT FCST BY 191200Z